Terminal Aerodrome Forecast
Issued by NWS Lake Charles, LA

Home | Current Version | Previous Version | Text Only | Print | Product List | Glossary On
Versions: 1 2 3 4 5 6 7 8 9 10 11 12 13 14
000
FTUS44 KLCH 280522
TAFAEX
TAF
KAEX 280522Z 2806/0106 16010KT P6SM OVC016
      TEMPO 2806/2809 OVC010
     FM280900 16008KT 5SM BR OVC010
      TEMPO 2810/2814 5SM BR OVC009
     FM281500 17011G18KT P6SM SCT014 SCT026
     FM281800 18016G22KT P6SM VCTS SCT030CB BKN250=

USA.gov is the U.S. government's official web portal to all federal, state and local government web resources and services.